8B0

Steven A Bean Municipal Airport

Rangeley, Maine, USA
METAR K8B0 192215Z AUTO 07005KT 10SM OVC032 12/10 A3009 RMK AO2
Observed Flight Rules
Sep-19 @ 22:15 UTC (19 minutes ago) Visual Flight Rules
Wind Visibility Clouds
70° at 5 knots 10 miles
  • Overcast at 3,200' AGL
Temperatures Readings
Current 12°C / 54°F
Dewpoint 10°C / 50°F
Humidity 88%
Altimeter 30.09" Hg
Pressure 1019 hPa
METAR K8B0 192215Z AUTO 07005KT 10SM OVC032 12/10 A3009 RMK AO2
Observed Flight Rules
Sep-19 @ 22:15 UTC
(19 minutes ago)
VFR
Wind Visibility
70° at 5 knots 10 miles
Clouds
  • Overcast at 3,200' AGL
Temperature Dewpoint
12°C / 54°F 10°C / 50°F
Humidity Altimeter Pressure
88% 30.09" Hg 1019 hPa